Dugway, Utah
Current Conditions -  °F | °C
As of 11:53 AM on Sunday 23 Nov 2014 (Local Time) from KPVU Reporting Station
Broken Clouds Broken Clouds  
Wind Chill: 26°   Ceiling: 3900
Heat Index: 34°   Visibility: 10mi
Dew Point: 27°   Wind: 9mph
Humidity: 75%   Direction: 310°NW
Pressure: 30.24"   Gusts: NA
Location:  40.23°N, 112.75°W
Report Text: KPVU 231853Z 31008KT 10SM SCT031 BKN039 BKN048 01/M03 A3024
Loading
Personal Weather Stations






























Interactive Weather Map New forecast layout! Learn more

10-Day Weather Forecast

Advertisements
Track Severe Weather on mobile